This is the latest recevied weather packets stored in our database for station/object KZ4HT-13. If no packets are shown the sender has not sent any weather packets the latest 10 day(s).
| Time | Temp. | Humidity | Pressure | Rain* | Wind** | Luminosity | Snow |
|---|---|---|---|---|---|---|---|
| 1777363893 | 17.78° C | 95% | 1018.6 hPa | 0 mm | - | - | - |
| 1777362066 | 18.33° C | 94% | 1018.7 hPa | 0 mm | - | - | - |
| 1777360860 | 18.89° C | 94% | 1018.8 hPa | 0 mm | - | - | - |
| 1777356645 | 18.89° C | 92% | 1019.4 hPa | 0 mm | - | - | - |
| 1777354836 | 19.44° C | 90% | 1019.6 hPa | 0 mm | - | - | - |
| 1777350621 | 20.56° C | 86% | 1019.8 hPa | 0 mm | - | - | - |
| 1777349417 | 21.11° C | 85% | 1019.9 hPa | 0 mm | - | - | - |
| 1777348875 | 21.11° C | 84% | 1019.8 hPa | 0 mm | - | - | - |
| 1777347673 | 21.11° C | 83% | 1019.9 hPa | 0 mm | - | - | - |
| 1777345866 | 21.67° C | 82% | 1019.9 hPa | 0 mm | - | - | - |
| 1777344662 | 21.67° C | 82% | 1019.7 hPa | 0 mm | - | - | - |
| 1777340450 | 22.78° C | 76% | 1019.4 hPa | 0 mm | - | - | - |
| 1777338645 | 22.78° C | 73% | 1018.9 hPa | 0 mm | - | - | - |
| 1777337440 | 22.78° C | 73% | 1018.7 hPa | 0 mm | - | - | - |
| 1777335656 | 23.33° C | 69% | 1018.4 hPa | 0 mm | - | - | - |
| 1777335075 | 23.33° C | 68% | 1018.3 hPa | 0 mm | - | - | - |
| 1777333832 | 23.89° C | 69% | 1018.1 hPa | 0 mm | - | - | - |
| 1777324265 | 27.22° C | 58% | 1017.1 hPa | 0 mm | - | - | - |
| 1777323062 | 27.22° C | 60% | 1017.1 hPa | 0 mm | - | - | - |
| 1777318847 | 29.44° C | 53% | 1016.8 hPa | 0 mm | - | - | - |
| 1777318246 | 28.89° C | 55% | 1016.8 hPa | 0 mm | - | - | - |
| 1777317644 | 28.33° C | 55% | 1016.8 hPa | 0 mm | - | - | - |
| 1777315236 | 29.44° C | 54% | 1016.8 hPa | 0 mm | - | - | - |
| 1777312828 | 28.89° C | 59% | 1017.2 hPa | 0 mm | - | - | - |
| 1777311643 | 27.22° C | 61% | 1017.2 hPa | 0 mm | - | - | - |
* Rain since midnight (hover to see other rain measurements)
** Current wind speed in m/s (hover to see current wind gust speed)